Lantrip, Mississippi
Current Conditions -  °F | °C
As of 1:55 PM on Sunday 21 Dec 2014 (Local Time) from KUOX Reporting Station
Clear Clear  
Wind Chill: 55°   Ceiling: Unl
Heat Index: 55°   Visibility: 10mi
Dew Point: 32°   Wind: 6mph
Humidity: 41%   Direction: 140°SE
Pressure: 30.06"   Gusts: NA
Location:  34.0213°N, 89.3777°W
Report Text: KUOX 211955Z AUTO 14005KT 10SM CLR 13/00 A3006 RMK AO2 PWINO PNO
Loading
Personal Weather Stations






























Interactive Weather Map New forecast layout! Learn more

10-Day Weather Forecast

Advertisements
Track Severe Weather on mobile